sensor_id;sensor_type;location;lat;lon;timestamp;temperature;humidity
2873;DHT22;1444;49.166;7.312;2024-01-16T00:00:59;0.60;98.10
2873;DHT22;1444;49.166;7.312;2024-01-16T00:03:27;0.60;98.10
2873;DHT22;1444;49.166;7.312;2024-01-16T00:05:55;0.50;98.20
2873;DHT22;1444;49.166;7.312;2024-01-16T00:08:21;0.50;98.00
2873;DHT22;1444;49.166;7.312;2024-01-16T00:10:48;0.50;98.10
2873;DHT22;1444;49.166;7.312;2024-01-16T00:13:15;0.70;98.20
2873;DHT22;1444;49.166;7.312;2024-01-16T00:15:42;0.60;98.00
2873;DHT22;1444;49.166;7.312;2024-01-16T00:18:09;0.50;97.60
2873;DHT22;1444;49.166;7.312;2024-01-16T00:20:37;0.50;97.80
2873;DHT22;1444;49.166;7.312;2024-01-16T00:23:04;0.30;98.00
2873;DHT22;1444;49.166;7.312;2024-01-16T00:25:31;0.30;98.20
2873;DHT22;1444;49.166;7.312;2024-01-16T00:27:58;0.30;98.00
2873;DHT22;1444;49.166;7.312;2024-01-16T00:30:25;0.20;98.10
2873;DHT22;1444;49.166;7.312;2024-01-16T00:32:52;0.10;98.20
2873;DHT22;1444;49.166;7.312;2024-01-16T00:35:19;0.10;98.30
2873;DHT22;1444;49.166;7.312;2024-01-16T00:37:47;0.10;98.40
2873;DHT22;1444;49.166;7.312;2024-01-16T00:40:14;0.10;98.50
2873;DHT22;1444;49.166;7.312;2024-01-16T00:42:41;0.10;98.60
2873;DHT22;1444;49.166;7.312;2024-01-16T00:45:08;0.10;98.70
2873;DHT22;1444;49.166;7.312;2024-01-16T00:47:35;0.10;98.80
2873;DHT22;1444;49.166;7.312;2024-01-16T00:50:02;0.10;98.80
2873;DHT22;1444;49.166;7.312;2024-01-16T00:52:28;0.20;98.90
2873;DHT22;1444;49.166;7.312;2024-01-16T00:54:56;0.20;99.00
2873;DHT22;1444;49.166;7.312;2024-01-16T00:57:23;0.20;99.00
2873;DHT22;1444;49.166;7.312;2024-01-16T00:59:50;0.20;99.00
2873;DHT22;1444;49.166;7.312;2024-01-16T01:02:17;0.30;99.00
2873;DHT22;1444;49.166;7.312;2024-01-16T01:04:44;0.40;98.90
2873;DHT22;1444;49.166;7.312;2024-01-16T01:07:13;0.40;99.00
2873;DHT22;1444;49.166;7.312;2024-01-16T01:09:40;0.50;98.90
2873;DHT22;1444;49.166;7.312;2024-01-16T01:12:09;0.40;98.80
2873;DHT22;1444;49.166;7.312;2024-01-16T01:14:36;0.50;99.00
2873;DHT22;1444;49.166;7.312;2024-01-16T01:17:03;0.50;98.80
2873;DHT22;1444;49.166;7.312;2024-01-16T01:19:30;0.50;98.90
2873;DHT22;1444;49.166;7.312;2024-01-16T01:21:57;0.50;98.80
2873;DHT22;1444;49.166;7.312;2024-01-16T01:24:24;0.50;98.60
2873;DHT22;1444;49.166;7.312;2024-01-16T01:26:51;0.60;98.60
2873;DHT22;1444;49.166;7.312;2024-01-16T01:29:19;0.60;98.50
2873;DHT22;1444;49.166;7.312;2024-01-16T01:31:46;0.60;98.40
2873;DHT22;1444;49.166;7.312;2024-01-16T01:34:14;0.50;98.30
2873;DHT22;1444;49.166;7.312;2024-01-16T01:36:41;0.50;98.40
2873;DHT22;1444;49.166;7.312;2024-01-16T01:39:09;0.50;98.20
2873;DHT22;1444;49.166;7.312;2024-01-16T01:41:36;0.40;98.20
2873;DHT22;1444;49.166;7.312;2024-01-16T01:46:33;0.30;98.30
2873;DHT22;1444;49.166;7.312;2024-01-16T01:49:01;0.20;98.10
2873;DHT22;1444;49.166;7.312;2024-01-16T01:51:29;0.00;98.30
2873;DHT22;1444;49.166;7.312;2024-01-16T01:56:24;-0.10;98.60
2873;DHT22;1444;49.166;7.312;2024-01-16T01:58:53;-0.10;98.50
2873;DHT22;1444;49.166;7.312;2024-01-16T02:01:22;-0.20;98.70
2873;DHT22;1444;49.166;7.312;2024-01-16T02:03:52;-0.20;99.00
2873;DHT22;1444;49.166;7.312;2024-01-16T02:06:22;-0.20;99.20
2873;DHT22;1444;49.166;7.312;2024-01-16T02:08:49;-0.30;99.40
2873;DHT22;1444;49.166;7.312;2024-01-16T02:11:16;-0.20;99.50
2873;DHT22;1444;49.166;7.312;2024-01-16T02:13:43;-0.10;99.50
2873;DHT22;1444;49.166;7.312;2024-01-16T02:16:18;-0.10;99.60
2873;DHT22;1444;49.166;7.312;2024-01-16T02:18:45;-0.10;99.60
2873;DHT22;1444;49.166;7.312;2024-01-16T02:21:17;-0.10;99.60
2873;DHT22;1444;49.166;7.312;2024-01-16T02:23:45;-0.10;99.60
2873;DHT22;1444;49.166;7.312;2024-01-16T02:26:14;-0.10;99.50
2873;DHT22;1444;49.166;7.312;2024-01-16T02:28:41;-0.10;99.50
2873;DHT22;1444;49.166;7.312;2024-01-16T02:31:08;0.00;99.50
2873;DHT22;1444;49.166;7.312;2024-01-16T02:33:35;0.10;99.60
2873;DHT22;1444;49.166;7.312;2024-01-16T02:36:02;0.10;99.50
2873;DHT22;1444;49.166;7.312;2024-01-16T02:38:29;0.10;99.50
2873;DHT22;1444;49.166;7.312;2024-01-16T02:40:57;0.10;99.60
2873;DHT22;1444;49.166;7.312;2024-01-16T02:43:24;0.10;99.70
2873;DHT22;1444;49.166;7.312;2024-01-16T02:45:53;0.10;99.60
2873;DHT22;1444;49.166;7.312;2024-01-16T02:48:20;0.00;99.50
2873;DHT22;1444;49.166;7.312;2024-01-16T02:50:47;0.00;99.50
2873;DHT22;1444;49.166;7.312;2024-01-16T02:53:14;0.10;99.50
2873;DHT22;1444;49.166;7.312;2024-01-16T02:55:41;0.00;99.50
2873;DHT22;1444;49.166;7.312;2024-01-16T02:58:09;0.00;99.40
2873;DHT22;1444;49.166;7.312;2024-01-16T03:00:36;-0.10;99.60
2873;DHT22;1444;49.166;7.312;2024-01-16T03:03:04;-0.10;99.50
2873;DHT22;1444;49.166;7.312;2024-01-16T03:05:31;-0.10;99.50
2873;DHT22;1444;49.166;7.312;2024-01-16T03:07:58;0.00;99.50
2873;DHT22;1444;49.166;7.312;2024-01-16T03:10:25;0.00;99.50
2873;DHT22;1444;49.166;7.312;2024-01-16T03:12:52;0.10;99.50
2873;DHT22;1444;49.166;7.312;2024-01-16T03:15:20;0.10;99.10
2873;DHT22;1444;49.166;7.312;2024-01-16T03:17:47;0.20;99.10
2873;DHT22;1444;49.166;7.312;2024-01-16T03:20:15;0.10;98.70
2873;DHT22;1444;49.166;7.312;2024-01-16T03:22:42;0.10;98.70
2873;DHT22;1444;49.166;7.312;2024-01-16T03:25:10;0.20;98.80
2873;DHT22;1444;49.166;7.312;2024-01-16T03:27:37;0.20;98.80
2873;DHT22;1444;49.166;7.312;2024-01-16T03:30:05;0.20;98.80
2873;DHT22;1444;49.166;7.312;2024-01-16T03:32:35;0.20;98.70
2873;DHT22;1444;49.166;7.312;2024-01-16T03:35:02;0.30;98.70
2873;DHT22;1444;49.166;7.312;2024-01-16T03:37:29;0.20;98.50
2873;DHT22;1444;49.166;7.312;2024-01-16T03:39:56;0.10;98.10
2873;DHT22;1444;49.166;7.312;2024-01-16T03:42:23;0.10;98.30
2873;DHT22;1444;49.166;7.312;2024-01-16T03:44:50;0.00;98.20
2873;DHT22;1444;49.166;7.312;2024-01-16T03:47:17;0.00;98.30
2873;DHT22;1444;49.166;7.312;2024-01-16T03:49:46;-0.10;97.70
2873;DHT22;1444;49.166;7.312;2024-01-16T03:52:13;-0.20;96.70
2873;DHT22;1444;49.166;7.312;2024-01-16T03:54:40;-0.60;96.20
2873;DHT22;1444;49.166;7.312;2024-01-16T03:57:07;-1.00;96.40
2873;DHT22;1444;49.166;7.312;2024-01-16T03:59:36;-1.20;97.40
2873;DHT22;1444;49.166;7.312;2024-01-16T04:02:03;-1.50;97.20
2873;DHT22;1444;49.166;7.312;2024-01-16T04:04:30;-1.50;97.30
2873;DHT22;1444;49.166;7.312;2024-01-16T04:06:59;-1.60;97.90
2873;DHT22;1444;49.166;7.312;2024-01-16T04:09:25;-1.80;97.60
2873;DHT22;1444;49.166;7.312;2024-01-16T04:11:52;-1.90;97.70
2873;DHT22;1444;49.166;7.312;2024-01-16T04:14:19;-2.10;97.60
2873;DHT22;1444;49.166;7.312;2024-01-16T04:16:47;-2.30;98.60
2873;DHT22;1444;49.166;7.312;2024-01-16T04:19:14;-2.30;99.30
2873;DHT22;1444;49.166;7.312;2024-01-16T04:21:41;-2.30;99.10
2873;DHT22;1444;49.166;7.312;2024-01-16T04:24:09;-2.30;97.90
2873;DHT22;1444;49.166;7.312;2024-01-16T04:26:36;-2.40;97.90
2873;DHT22;1444;49.166;7.312;2024-01-16T04:31:32;-2.60;98.40
2873;DHT22;1444;49.166;7.312;2024-01-16T04:33:59;-2.80;97.90
2873;DHT22;1444;49.166;7.312;2024-01-16T04:36:27;-2.90;98.20
2873;DHT22;1444;49.166;7.312;2024-01-16T04:38:53;-3.00;98.50
2873;DHT22;1444;49.166;7.312;2024-01-16T04:41:22;-3.20;98.70
2873;DHT22;1444;49.166;7.312;2024-01-16T04:43:49;-3.20;99.20
2873;DHT22;1444;49.166;7.312;2024-01-16T04:46:16;-3.20;99.30
2873;DHT22;1444;49.166;7.312;2024-01-16T04:48:43;-3.30;98.90
2873;DHT22;1444;49.166;7.312;2024-01-16T04:51:10;-3.30;98.80
2873;DHT22;1444;49.166;7.312;2024-01-16T04:53:37;-3.30;98.60
2873;DHT22;1444;49.166;7.312;2024-01-16T04:56:04;-3.40;98.20
2873;DHT22;1444;49.166;7.312;2024-01-16T04:58:33;-3.50;98.10
2873;DHT22;1444;49.166;7.312;2024-01-16T05:01:00;-3.40;98.50
2873;DHT22;1444;49.166;7.312;2024-01-16T05:03:27;-3.50;98.10
2873;DHT22;1444;49.166;7.312;2024-01-16T05:05:54;-3.50;98.00
2873;DHT22;1444;49.166;7.312;2024-01-16T05:08:22;-3.50;98.60
2873;DHT22;1444;49.166;7.312;2024-01-16T05:10:49;-3.50;99.20
2873;DHT22;1444;49.166;7.312;2024-01-16T05:13:16;-3.50;99.90
2873;DHT22;1444;49.166;7.312;2024-01-16T05:15:44;-3.50;99.00
2873;DHT22;1444;49.166;7.312;2024-01-16T05:18:11;-3.50;98.10
2873;DHT22;1444;49.166;7.312;2024-01-16T05:20:38;-3.60;97.50
2873;DHT22;1444;49.166;7.312;2024-01-16T05:23:05;-3.70;97.70
2873;DHT22;1444;49.166;7.312;2024-01-16T05:27:59;-3.70;98.10
2873;DHT22;1444;49.166;7.312;2024-01-16T05:30:27;-3.60;98.40
2873;DHT22;1444;49.166;7.312;2024-01-16T05:32:55;-3.30;98.10
2873;DHT22;1444;49.166;7.312;2024-01-16T05:35:26;-3.30;97.80
2873;DHT22;1444;49.166;7.312;2024-01-16T05:37:53;-3.50;97.10
2873;DHT22;1444;49.166;7.312;2024-01-16T05:40:21;-3.60;97.80
2873;DHT22;1444;49.166;7.312;2024-01-16T05:42:48;-3.80;97.50
2873;DHT22;1444;49.166;7.312;2024-01-16T05:45:15;-3.80;98.20
2873;DHT22;1444;49.166;7.312;2024-01-16T05:47:42;-3.80;98.90
2873;DHT22;1444;49.166;7.312;2024-01-16T05:50:10;-3.80;99.50
2873;DHT22;1444;49.166;7.312;2024-01-16T05:52:37;-3.80;99.90
2873;DHT22;1444;49.166;7.312;2024-01-16T05:55:06;-3.70;99.90
2873;DHT22;1444;49.166;7.312;2024-01-16T05:57:34;-3.70;99.90
2873;DHT22;1444;49.166;7.312;2024-01-16T06:00:01;-3.50;99.90
2873;DHT22;1444;49.166;7.312;2024-01-16T06:02:29;-3.50;99.90
2873;DHT22;1444;49.166;7.312;2024-01-16T06:04:56;-3.40;99.90
2873;DHT22;1444;49.166;7.312;2024-01-16T06:07:24;-3.40;99.90
2873;DHT22;1444;49.166;7.312;2024-01-16T06:09:51;-3.40;99.90
2873;DHT22;1444;49.166;7.312;2024-01-16T06:12:18;-3.40;99.90
2873;DHT22;1444;49.166;7.312;2024-01-16T06:14:45;-3.30;99.90
2873;DHT22;1444;49.166;7.312;2024-01-16T06:17:12;-3.30;99.90
2873;DHT22;1444;49.166;7.312;2024-01-16T06:19:39;-3.30;99.90
2873;DHT22;1444;49.166;7.312;2024-01-16T06:22:06;-3.30;99.90
2873;DHT22;1444;49.166;7.312;2024-01-16T06:24:35;-3.30;99.90
2873;DHT22;1444;49.166;7.312;2024-01-16T06:27:04;-3.30;99.90
2873;DHT22;1444;49.166;7.312;2024-01-16T06:29:31;-3.20;99.90
2873;DHT22;1444;49.166;7.312;2024-01-16T06:31:58;-3.20;99.90
2873;DHT22;1444;49.166;7.312;2024-01-16T06:34:26;-3.20;99.90
2873;DHT22;1444;49.166;7.312;2024-01-16T06:36:53;-3.20;99.90
2873;DHT22;1444;49.166;7.312;2024-01-16T06:39:20;-3.20;99.90
2873;DHT22;1444;49.166;7.312;2024-01-16T06:41:48;-3.10;99.90
2873;DHT22;1444;49.166;7.312;2024-01-16T06:44:16;-3.10;99.90
2873;DHT22;1444;49.166;7.312;2024-01-16T06:46:43;-3.10;99.90
2873;DHT22;1444;49.166;7.312;2024-01-16T06:49:09;-3.00;99.90
2873;DHT22;1444;49.166;7.312;2024-01-16T06:51:36;-3.00;99.90
2873;DHT22;1444;49.166;7.312;2024-01-16T06:54:03;-3.00;99.90
2873;DHT22;1444;49.166;7.312;2024-01-16T06:56:31;-2.90;99.90
2873;DHT22;1444;49.166;7.312;2024-01-16T06:58:59;-2.80;99.90
2873;DHT22;1444;49.166;7.312;2024-01-16T07:03:53;-2.60;99.90
2873;DHT22;1444;49.166;7.312;2024-01-16T07:06:20;-2.50;99.90
2873;DHT22;1444;49.166;7.312;2024-01-16T07:08:47;-2.40;99.90
2873;DHT22;1444;49.166;7.312;2024-01-16T07:11:14;-2.40;99.70
2873;DHT22;1444;49.166;7.312;2024-01-16T07:13:41;-2.50;99.50
2873;DHT22;1444;49.166;7.312;2024-01-16T07:16:11;-2.40;99.90
2873;DHT22;1444;49.166;7.312;2024-01-16T07:18:38;-2.30;99.80
2873;DHT22;1444;49.166;7.312;2024-01-16T07:21:16;-2.40;99.70
2873;DHT22;1444;49.166;7.312;2024-01-16T07:23:43;-2.50;99.80
2873;DHT22;1444;49.166;7.312;2024-01-16T07:26:10;-2.60;99.90
2873;DHT22;1444;49.166;7.312;2024-01-16T07:28:37;-2.70;99.90
2873;DHT22;1444;49.166;7.312;2024-01-16T07:31:04;-2.80;99.90
2873;DHT22;1444;49.166;7.312;2024-01-16T07:33:32;-2.90;99.90
2873;DHT22;1444;49.166;7.312;2024-01-16T07:35:59;-3.00;99.90
2873;DHT22;1444;49.166;7.312;2024-01-16T07:38:26;-2.80;99.90
2873;DHT22;1444;49.166;7.312;2024-01-16T07:40:53;-2.80;99.90
2873;DHT22;1444;49.166;7.312;2024-01-16T07:43:21;-2.80;99.90
2873;DHT22;1444;49.166;7.312;2024-01-16T07:45:49;-2.80;99.90
2873;DHT22;1444;49.166;7.312;2024-01-16T07:48:16;-2.80;99.90
2873;DHT22;1444;49.166;7.312;2024-01-16T07:50:44;-2.80;99.90
2873;DHT22;1444;49.166;7.312;2024-01-16T07:53:11;-2.70;99.90
2873;DHT22;1444;49.166;7.312;2024-01-16T07:58:05;-2.80;99.90
2873;DHT22;1444;49.166;7.312;2024-01-16T08:00:32;-2.70;99.90
2873;DHT22;1444;49.166;7.312;2024-01-16T08:02:59;-2.70;99.90
2873;DHT22;1444;49.166;7.312;2024-01-16T08:05:26;-2.70;99.90
2873;DHT22;1444;49.166;7.312;2024-01-16T08:07:57;-2.70;99.90
2873;DHT22;1444;49.166;7.312;2024-01-16T08:10:23;-2.60;99.90
2873;DHT22;1444;49.166;7.312;2024-01-16T08:12:50;-2.50;99.90
2873;DHT22;1444;49.166;7.312;2024-01-16T08:15:17;-2.50;99.90
2873;DHT22;1444;49.166;7.312;2024-01-16T08:17:44;-2.40;99.90
2873;DHT22;1444;49.166;7.312;2024-01-16T08:20:12;-2.40;99.90
2873;DHT22;1444;49.166;7.312;2024-01-16T08:22:39;-2.40;99.90
2873;DHT22;1444;49.166;7.312;2024-01-16T08:25:08;-2.30;99.90
2873;DHT22;1444;49.166;7.312;2024-01-16T08:27:34;-2.20;99.90
2873;DHT22;1444;49.166;7.312;2024-01-16T08:30:03;-2.20;99.90
2873;DHT22;1444;49.166;7.312;2024-01-16T08:32:31;-2.20;99.90
2873;DHT22;1444;49.166;7.312;2024-01-16T08:34:58;-2.10;99.90
2873;DHT22;1444;49.166;7.312;2024-01-16T08:37:24;-2.00;99.90
2873;DHT22;1444;49.166;7.312;2024-01-16T08:39:51;-2.00;99.90
2873;DHT22;1444;49.166;7.312;2024-01-16T08:42:20;-1.90;99.90
2873;DHT22;1444;49.166;7.312;2024-01-16T08:44:47;-1.70;99.90
2873;DHT22;1444;49.166;7.312;2024-01-16T08:47:13;-1.70;99.90
2873;DHT22;1444;49.166;7.312;2024-01-16T08:49:44;-1.60;99.90
2873;DHT22;1444;49.166;7.312;2024-01-16T08:52:12;-1.60;99.90
2873;DHT22;1444;49.166;7.312;2024-01-16T08:54:38;-1.60;99.90
2873;DHT22;1444;49.166;7.312;2024-01-16T08:57:06;-1.50;99.90
2873;DHT22;1444;49.166;7.312;2024-01-16T08:59:37;-1.40;99.90
2873;DHT22;1444;49.166;7.312;2024-01-16T09:02:05;-1.40;99.90
2873;DHT22;1444;49.166;7.312;2024-01-16T09:04:31;-1.30;99.90
2873;DHT22;1444;49.166;7.312;2024-01-16T09:06:59;-1.20;99.90
2873;DHT22;1444;49.166;7.312;2024-01-16T09:09:26;-1.20;99.90
2873;DHT22;1444;49.166;7.312;2024-01-16T09:14:20;-1.10;99.90
2873;DHT22;1444;49.166;7.312;2024-01-16T09:16:48;-1.10;99.90
2873;DHT22;1444;49.166;7.312;2024-01-16T09:19:16;-1.10;99.90
2873;DHT22;1444;49.166;7.312;2024-01-16T09:21:43;-1.10;99.90
2873;DHT22;1444;49.166;7.312;2024-01-16T09:24:10;-1.10;99.90
2873;DHT22;1444;49.166;7.312;2024-01-16T09:26:38;-1.00;99.80
2873;DHT22;1444;49.166;7.312;2024-01-16T09:29:05;-1.00;99.80
2873;DHT22;1444;49.166;7.312;2024-01-16T09:31:32;-0.90;99.70
2873;DHT22;1444;49.166;7.312;2024-01-16T09:34:00;-0.80;99.70
2873;DHT22;1444;49.166;7.312;2024-01-16T09:36:27;-0.70;99.70
2873;DHT22;1444;49.166;7.312;2024-01-16T09:41:21;-0.50;99.50
2873;DHT22;1444;49.166;7.312;2024-01-16T09:43:48;-0.30;99.20
2873;DHT22;1444;49.166;7.312;2024-01-16T09:46:16;-0.20;98.90
2873;DHT22;1444;49.166;7.312;2024-01-16T09:48:44;-0.10;98.60
2873;DHT22;1444;49.166;7.312;2024-01-16T09:51:13;0.00;98.40
2873;DHT22;1444;49.166;7.312;2024-01-16T09:53:41;0.10;98.20
2873;DHT22;1444;49.166;7.312;2024-01-16T09:56:13;0.30;98.10
2873;DHT22;1444;49.166;7.312;2024-01-16T09:58:41;0.40;98.00
2873;DHT22;1444;49.166;7.312;2024-01-16T10:01:10;0.60;98.10
2873;DHT22;1444;49.166;7.312;2024-01-16T10:03:38;0.70;97.80
2873;DHT22;1444;49.166;7.312;2024-01-16T10:06:06;0.80;97.60
2873;DHT22;1444;49.166;7.312;2024-01-16T10:08:35;1.00;97.00
2873;DHT22;1444;49.166;7.312;2024-01-16T10:11:02;1.00;97.00
2873;DHT22;1444;49.166;7.312;2024-01-16T10:13:29;1.20;96.80
2873;DHT22;1444;49.166;7.312;2024-01-16T10:15:56;1.30;96.60
2873;DHT22;1444;49.166;7.312;2024-01-16T10:18:26;1.40;96.50
2873;DHT22;1444;49.166;7.312;2024-01-16T10:20:53;1.50;96.20
2873;DHT22;1444;49.166;7.312;2024-01-16T10:23:24;1.40;95.90
2873;DHT22;1444;49.166;7.312;2024-01-16T10:26:06;1.30;95.90
2873;DHT22;1444;49.166;7.312;2024-01-16T10:28:34;1.20;96.00
2873;DHT22;1444;49.166;7.312;2024-01-16T10:31:04;1.20;96.40
2873;DHT22;1444;49.166;7.312;2024-01-16T10:33:31;1.20;96.10
2873;DHT22;1444;49.166;7.312;2024-01-16T10:36:08;1.40;96.00
2873;DHT22;1444;49.166;7.312;2024-01-16T10:38:36;1.40;96.10
2873;DHT22;1444;49.166;7.312;2024-01-16T10:41:08;1.40;96.20
2873;DHT22;1444;49.166;7.312;2024-01-16T10:43:35;1.60;96.30
2873;DHT22;1444;49.166;7.312;2024-01-16T10:46:10;1.80;96.00
2873;DHT22;1444;49.166;7.312;2024-01-16T10:48:39;2.20;96.20
2873;DHT22;1444;49.166;7.312;2024-01-16T10:51:07;2.50;96.70
2873;DHT22;1444;49.166;7.312;2024-01-16T10:53:35;2.60;95.30
2873;DHT22;1444;49.166;7.312;2024-01-16T10:56:06;2.80;95.00
2873;DHT22;1444;49.166;7.312;2024-01-16T10:58:40;3.00;95.40
2873;DHT22;1444;49.166;7.312;2024-01-16T11:01:10;3.10;94.90
2873;DHT22;1444;49.166;7.312;2024-01-16T11:03:40;3.40;94.70
2873;DHT22;1444;49.166;7.312;2024-01-16T11:06:09;3.50;94.90
2873;DHT22;1444;49.166;7.312;2024-01-16T11:08:37;4.00;94.80
2873;DHT22;1444;49.166;7.312;2024-01-16T11:11:04;4.40;95.00
2873;DHT22;1444;49.166;7.312;2024-01-16T11:13:34;4.70;93.60
2873;DHT22;1444;49.166;7.312;2024-01-16T11:16:03;4.90;92.90
2873;DHT22;1444;49.166;7.312;2024-01-16T11:18:31;5.20;93.00
2873;DHT22;1444;49.166;7.312;2024-01-16T11:21:00;5.20;92.70
2873;DHT22;1444;49.166;7.312;2024-01-16T11:23:28;5.40;92.90
2873;DHT22;1444;49.166;7.312;2024-01-16T11:25:55;5.60;92.40
2873;DHT22;1444;49.166;7.312;2024-01-16T11:28:28;5.70;92.60
2873;DHT22;1444;49.166;7.312;2024-01-16T11:30:57;5.60;91.10
2873;DHT22;1444;49.166;7.312;2024-01-16T11:33:42;5.70;91.60
2873;DHT22;1444;49.166;7.312;2024-01-16T11:36:45;5.70;91.30
2873;DHT22;1444;49.166;7.312;2024-01-16T11:39:17;5.70;90.90
2873;DHT22;1444;49.166;7.312;2024-01-16T11:41:51;5.60;90.70
2873;DHT22;1444;49.166;7.312;2024-01-16T11:44:42;5.40;90.90
2873;DHT22;1444;49.166;7.312;2024-01-16T11:47:16;5.40;91.00
2873;DHT22;1444;49.166;7.312;2024-01-16T11:49:43;5.30;90.80
2873;DHT22;1444;49.166;7.312;2024-01-16T11:52:11;5.30;91.10
2873;DHT22;1444;49.166;7.312;2024-01-16T11:54:38;5.40;91.10
2873;DHT22;1444;49.166;7.312;2024-01-16T12:00:03;5.60;91.00
2873;DHT22;1444;49.166;7.312;2024-01-16T12:02:48;5.50;90.10
2873;DHT22;1444;49.166;7.312;2024-01-16T12:05:15;5.50;90.80
2873;DHT22;1444;49.166;7.312;2024-01-16T12:07:45;5.40;90.50
2873;DHT22;1444;49.166;7.312;2024-01-16T12:10:12;4.90;90.00
2873;DHT22;1444;49.166;7.312;2024-01-16T12:12:40;4.80;90.20
2873;DHT22;1444;49.166;7.312;2024-01-16T12:15:12;4.50;90.40
2873;DHT22;1444;49.166;7.312;2024-01-16T12:17:52;4.30;90.90
2873;DHT22;1444;49.166;7.312;2024-01-16T12:22:53;4.40;91.60
2873;DHT22;1444;49.166;7.312;2024-01-16T12:25:20;4.70;91.20
2873;DHT22;1444;49.166;7.312;2024-01-16T12:27:54;4.90;90.80
2873;DHT22;1444;49.166;7.312;2024-01-16T12:30:23;5.00;91.00
2873;DHT22;1444;49.166;7.312;2024-01-16T12:32:52;5.00;90.10
2873;DHT22;1444;49.166;7.312;2024-01-16T12:35:20;5.00;90.80
2873;DHT22;1444;49.166;7.312;2024-01-16T12:37:58;5.10;90.40
2873;DHT22;1444;49.166;7.312;2024-01-16T12:40:26;5.10;90.10
2873;DHT22;1444;49.166;7.312;2024-01-16T12:42:53;5.10;90.40
2873;DHT22;1444;49.166;7.312;2024-01-16T12:45:20;5.20;90.70
2873;DHT22;1444;49.166;7.312;2024-01-16T12:47:53;5.50;90.90
2873;DHT22;1444;49.166;7.312;2024-01-16T12:50:24;5.60;90.20
2873;DHT22;1444;49.166;7.312;2024-01-16T12:53:01;5.40;88.00
2873;DHT22;1444;49.166;7.312;2024-01-16T12:55:28;5.30;89.30
2873;DHT22;1444;49.166;7.312;2024-01-16T12:58:13;5.30;90.00
2873;DHT22;1444;49.166;7.312;2024-01-16T13:00:40;5.00;88.30
2873;DHT22;1444;49.166;7.312;2024-01-16T13:03:14;5.00;89.00
2873;DHT22;1444;49.166;7.312;2024-01-16T13:05:42;4.80;88.40
2873;DHT22;1444;49.166;7.312;2024-01-16T13:08:09;4.90;90.10
2873;DHT22;1444;49.166;7.312;2024-01-16T13:10:36;4.90;90.20
2873;DHT22;1444;49.166;7.312;2024-01-16T13:13:14;4.90;90.00
2873;DHT22;1444;49.166;7.312;2024-01-16T13:15:41;4.70;88.80
2873;DHT22;1444;49.166;7.312;2024-01-16T13:18:18;4.50;88.70
2873;DHT22;1444;49.166;7.312;2024-01-16T13:20:47;4.40;88.50
2873;DHT22;1444;49.166;7.312;2024-01-16T13:23:14;4.50;89.30
2873;DHT22;1444;49.166;7.312;2024-01-16T13:25:43;4.40;88.60
2873;DHT22;1444;49.166;7.312;2024-01-16T13:28:11;4.30;89.80
2873;DHT22;1444;49.166;7.312;2024-01-16T13:30:38;4.40;90.00
2873;DHT22;1444;49.166;7.312;2024-01-16T13:33:05;4.40;87.40
2873;DHT22;1444;49.166;7.312;2024-01-16T13:35:38;4.40;87.60
2873;DHT22;1444;49.166;7.312;2024-01-16T13:38:05;4.50;90.00
2873;DHT22;1444;49.166;7.312;2024-01-16T13:40:34;4.40;87.40
2873;DHT22;1444;49.166;7.312;2024-01-16T13:43:01;4.30;87.70
2873;DHT22;1444;49.166;7.312;2024-01-16T13:45:28;4.30;87.90
2873;DHT22;1444;49.166;7.312;2024-01-16T13:47:55;4.30;88.60
2873;DHT22;1444;49.166;7.312;2024-01-16T13:50:22;4.60;88.50
2873;DHT22;1444;49.166;7.312;2024-01-16T13:52:51;4.60;88.30
2873;DHT22;1444;49.166;7.312;2024-01-16T13:55:19;4.60;87.00
2873;DHT22;1444;49.166;7.312;2024-01-16T13:57:46;4.60;87.50
2873;DHT22;1444;49.166;7.312;2024-01-16T14:00:14;4.50;86.70
2873;DHT22;1444;49.166;7.312;2024-01-16T14:02:43;4.50;86.80
2873;DHT22;1444;49.166;7.312;2024-01-16T14:05:11;4.70;87.80
2873;DHT22;1444;49.166;7.312;2024-01-16T14:07:41;4.60;88.10
2873;DHT22;1444;49.166;7.312;2024-01-16T14:10:10;4.90;90.10
2873;DHT22;1444;49.166;7.312;2024-01-16T14:12:38;5.30;90.00
2873;DHT22;1444;49.166;7.312;2024-01-16T14:15:06;5.90;89.00
2873;DHT22;1444;49.166;7.312;2024-01-16T14:17:41;6.10;86.30
2873;DHT22;1444;49.166;7.312;2024-01-16T14:20:10;6.10;85.80
2873;DHT22;1444;49.166;7.312;2024-01-16T14:22:37;6.10;85.00
2873;DHT22;1444;49.166;7.312;2024-01-16T14:25:06;6.10;85.80
2873;DHT22;1444;49.166;7.312;2024-01-16T14:27:39;6.10;85.10
2873;DHT22;1444;49.166;7.312;2024-01-16T14:30:08;5.90;84.70
2873;DHT22;1444;49.166;7.312;2024-01-16T14:32:36;5.90;86.00
2873;DHT22;1444;49.166;7.312;2024-01-16T14:35:05;5.50;84.20
2873;DHT22;1444;49.166;7.312;2024-01-16T14:37:33;5.40;84.30
2873;DHT22;1444;49.166;7.312;2024-01-16T14:40:02;5.50;86.20
2873;DHT22;1444;49.166;7.312;2024-01-16T14:42:32;5.50;85.30
2873;DHT22;1444;49.166;7.312;2024-01-16T14:45:01;5.30;84.40
2873;DHT22;1444;49.166;7.312;2024-01-16T14:47:28;5.30;85.40
2873;DHT22;1444;49.166;7.312;2024-01-16T14:49:55;5.20;86.90
2873;DHT22;1444;49.166;7.312;2024-01-16T14:52:23;5.50;87.70
2873;DHT22;1444;49.166;7.312;2024-01-16T14:54:50;5.60;86.40
2873;DHT22;1444;49.166;7.312;2024-01-16T14:57:18;5.90;86.30
2873;DHT22;1444;49.166;7.312;2024-01-16T14:59:46;6.20;88.40
2873;DHT22;1444;49.166;7.312;2024-01-16T15:02:14;6.50;88.90
2873;DHT22;1444;49.166;7.312;2024-01-16T15:04:42;7.20;86.70
2873;DHT22;1444;49.166;7.312;2024-01-16T15:07:09;7.30;84.20
2873;DHT22;1444;49.166;7.312;2024-01-16T15:09:36;7.20;82.80
2873;DHT22;1444;49.166;7.312;2024-01-16T15:12:05;7.20;82.90
2873;DHT22;1444;49.166;7.312;2024-01-16T15:14:32;7.10;82.80
2873;DHT22;1444;49.166;7.312;2024-01-16T15:17:00;7.00;81.70
2873;DHT22;1444;49.166;7.312;2024-01-16T15:19:28;7.00;82.70
2873;DHT22;1444;49.166;7.312;2024-01-16T15:21:55;6.80;81.40
2873;DHT22;1444;49.166;7.312;2024-01-16T15:24:23;6.60;82.80
2873;DHT22;1444;49.166;7.312;2024-01-16T15:26:54;6.50;82.30
2873;DHT22;1444;49.166;7.312;2024-01-16T15:29:22;6.20;80.60
2873;DHT22;1444;49.166;7.312;2024-01-16T15:31:49;6.10;83.70
2873;DHT22;1444;49.166;7.312;2024-01-16T15:34:17;5.80;82.10
2873;DHT22;1444;49.166;7.312;2024-01-16T15:36:46;5.60;82.70
2873;DHT22;1444;49.166;7.312;2024-01-16T15:39:13;5.30;81.80
2873;DHT22;1444;49.166;7.312;2024-01-16T15:41:41;5.00;81.90
2873;DHT22;1444;49.166;7.312;2024-01-16T15:44:08;4.70;82.60
2873;DHT22;1444;49.166;7.312;2024-01-16T15:46:53;4.60;83.70
2873;DHT22;1444;49.166;7.312;2024-01-16T15:49:20;4.30;82.60
2873;DHT22;1444;49.166;7.312;2024-01-16T15:51:48;3.80;82.40
2873;DHT22;1444;49.166;7.312;2024-01-16T15:54:15;3.60;82.70
2873;DHT22;1444;49.166;7.312;2024-01-16T15:56:42;3.30;82.60
2873;DHT22;1444;49.166;7.312;2024-01-16T15:59:10;3.20;85.10
2873;DHT22;1444;49.166;7.312;2024-01-16T16:01:37;3.00;84.20
2873;DHT22;1444;49.166;7.312;2024-01-16T16:04:04;2.80;84.20
2873;DHT22;1444;49.166;7.312;2024-01-16T16:06:33;2.50;85.40
2873;DHT22;1444;49.166;7.312;2024-01-16T16:09:02;2.50;85.80
2873;DHT22;1444;49.166;7.312;2024-01-16T16:11:32;2.50;85.90
2873;DHT22;1444;49.166;7.312;2024-01-16T16:13:59;2.30;84.40
2873;DHT22;1444;49.166;7.312;2024-01-16T16:16:26;1.70;83.60
2873;DHT22;1444;49.166;7.312;2024-01-16T16:18:53;1.30;84.00
2873;DHT22;1444;49.166;7.312;2024-01-16T16:21:20;1.00;84.30
2873;DHT22;1444;49.166;7.312;2024-01-16T16:23:47;0.90;84.70
2873;DHT22;1444;49.166;7.312;2024-01-16T16:26:29;0.90;85.40
2873;DHT22;1444;49.166;7.312;2024-01-16T16:28:58;0.70;85.30
2873;DHT22;1444;49.166;7.312;2024-01-16T16:31:25;0.60;85.90
2873;DHT22;1444;49.166;7.312;2024-01-16T16:33:52;0.70;87.40
2873;DHT22;1444;49.166;7.312;2024-01-16T16:36:19;0.70;87.10
2873;DHT22;1444;49.166;7.312;2024-01-16T16:38:45;0.30;86.00
2873;DHT22;1444;49.166;7.312;2024-01-16T16:41:12;0.30;86.40
2873;DHT22;1444;49.166;7.312;2024-01-16T16:43:41;0.10;85.60